createdAt,value
2023-09-20T00:02:18.276Z,22.91
2023-09-20T00:04:49.549Z,22.94
2023-09-20T00:07:17.470Z,22.73
2023-09-20T00:09:44.706Z,22.43
2023-09-20T00:12:11.797Z,22.22
2023-09-20T00:14:39.022Z,22.32
2023-09-20T00:17:06.423Z,22.43
2023-09-20T00:19:33.998Z,22.71
2023-09-20T00:22:01.071Z,22.81
2023-09-20T00:24:28.574Z,22.85
2023-09-20T00:26:56.163Z,22.83
2023-09-20T00:29:26.178Z,22.86
2023-09-20T00:31:53.694Z,22.89
2023-09-20T00:34:21.102Z,22.75
2023-09-20T00:36:48.260Z,22.54
2023-09-20T00:39:15.797Z,22.58
2023-09-20T00:41:43.031Z,22.60
2023-09-20T00:44:10.211Z,22.55
2023-09-20T00:46:40.121Z,22.18
2023-09-20T00:49:07.890Z,21.77
2023-09-20T00:51:35.179Z,21.90
2023-09-20T00:54:05.559Z,22.15
2023-09-20T00:56:34.469Z,22.15
2023-09-20T00:59:08.402Z,22.19
2023-09-20T01:01:36.360Z,22.34
2023-09-20T01:04:06.221Z,22.25
2023-09-20T01:06:34.835Z,22.31
2023-09-20T01:09:02.080Z,22.42
2023-09-20T01:11:29.489Z,22.39
2023-09-20T01:14:00.765Z,22.36
2023-09-20T01:16:28.462Z,22.42
2023-09-20T01:18:55.608Z,22.53
2023-09-20T01:21:22.669Z,22.63
2023-09-20T01:23:50.709Z,22.68
2023-09-20T01:26:18.262Z,22.63
2023-09-20T01:28:45.515Z,22.58
2023-09-20T01:31:12.861Z,22.54
2023-09-20T01:33:40.152Z,22.58
2023-09-20T01:36:07.921Z,22.57
2023-09-20T01:38:36.190Z,22.46
2023-09-20T01:41:05.025Z,22.44
2023-09-20T01:43:32.649Z,22.47
2023-09-20T01:46:00.132Z,22.59
2023-09-20T01:48:28.528Z,22.62
2023-09-20T01:50:55.898Z,22.68
2023-09-20T01:53:26.028Z,22.73
2023-09-20T01:55:53.716Z,22.74
2023-09-20T01:58:21.093Z,22.72
2023-09-20T02:00:51.877Z,22.68
2023-09-20T02:03:20.408Z,22.74
2023-09-20T02:06:08.011Z,22.65
2023-09-20T02:08:35.578Z,22.50
2023-09-20T02:11:04.497Z,22.42
2023-09-20T02:13:31.787Z,22.38
2023-09-20T02:16:00.852Z,22.32
2023-09-20T02:18:27.950Z,22.46
2023-09-20T02:20:56.875Z,22.51
2023-09-20T02:23:24.132Z,22.47
2023-09-20T02:25:51.355Z,22.44
2023-09-20T02:28:18.424Z,22.45
2023-09-20T02:30:46.600Z,22.55
2023-09-20T02:33:16.640Z,22.61
2023-09-20T02:35:46.503Z,22.64
2023-09-20T02:38:14.204Z,22.68
2023-09-20T02:40:41.500Z,22.72
2023-09-20T02:43:10.020Z,22.75
2023-09-20T02:45:46.592Z,22.76
2023-09-20T02:48:14.916Z,22.82
2023-09-20T02:50:42.984Z,22.84
2023-09-20T02:53:11.163Z,22.82
2023-09-20T02:55:40.008Z,22.74
2023-09-20T02:58:08.734Z,22.58
2023-09-20T03:00:39.745Z,22.61
2023-09-20T03:03:09.101Z,22.70
2023-09-20T03:05:38.470Z,22.75
2023-09-20T03:08:13.201Z,22.68
2023-09-20T03:10:45.019Z,22.69
2023-09-20T03:13:18.274Z,22.67
2023-09-20T03:15:49.357Z,22.70
2023-09-20T03:18:19.868Z,22.62
2023-09-20T03:20:54.478Z,22.52
2023-09-20T03:23:23.828Z,22.29
2023-09-20T03:25:52.594Z,22.35
2023-09-20T03:28:24.737Z,22.34
2023-09-20T03:30:57.233Z,22.30
2023-09-20T03:33:26.517Z,22.14
2023-09-20T03:35:53.784Z,22.23
2023-09-20T03:38:21.687Z,22.28
2023-09-20T03:40:49.388Z,22.38
2023-09-20T03:43:17.119Z,22.40
2023-09-20T03:45:49.000Z,22.42
2023-09-20T03:48:17.915Z,22.53
2023-09-20T03:50:46.702Z,22.58
2023-09-20T03:53:17.554Z,22.58
2023-09-20T03:55:48.169Z,22.56
2023-09-20T03:58:15.349Z,22.49
2023-09-20T04:00:43.927Z,22.52
2023-09-20T04:03:13.548Z,22.60
2023-09-20T04:05:46.327Z,22.61
2023-09-20T04:08:17.940Z,22.58
2023-09-20T04:10:46.859Z,22.54
2023-09-20T04:13:16.019Z,22.55
2023-09-20T04:15:44.503Z,22.50
2023-09-20T04:18:14.614Z,22.63
2023-09-20T04:20:51.361Z,22.67
2023-09-20T04:23:20.392Z,22.63
2023-09-20T04:25:47.692Z,22.58
2023-09-20T04:28:14.827Z,22.54
2023-09-20T04:30:42.233Z,22.15
2023-09-20T04:33:13.481Z,21.71
2023-09-20T04:35:43.240Z,21.43
2023-09-20T04:38:16.466Z,21.66
2023-09-20T04:40:44.022Z,21.72
2023-09-20T04:43:11.677Z,21.86
2023-09-20T04:45:39.949Z,22.05
2023-09-20T04:48:07.862Z,22.14
2023-09-20T04:50:36.728Z,22.22
2023-09-20T04:53:05.126Z,22.33
2023-09-20T04:55:35.584Z,22.42
2023-09-20T04:58:03.097Z,22.23
2023-09-20T05:00:39.245Z,22.10
2023-09-20T05:03:12.935Z,21.60
2023-09-20T05:05:40.670Z,21.00
2023-09-20T05:08:09.877Z,20.55
2023-09-20T05:10:38.794Z,20.43
2023-09-20T05:13:08.553Z,20.40
2023-09-20T05:15:36.285Z,20.42
2023-09-20T05:18:05.654Z,20.43
2023-09-20T05:20:33.882Z,20.25
2023-09-20T05:23:02.011Z,20.53
2023-09-20T05:25:29.426Z,20.68
2023-09-20T05:27:56.768Z,20.68
2023-09-20T05:30:23.905Z,20.91
2023-09-20T05:32:53.476Z,20.99
2023-09-20T05:35:21.347Z,20.87
2023-09-20T05:37:49.631Z,20.85
2023-09-20T05:40:20.086Z,20.47
2023-09-20T05:42:48.496Z,20.32
2023-09-20T05:45:15.817Z,20.38
2023-09-20T05:47:43.722Z,20.34
2023-09-20T05:50:11.846Z,20.31
2023-09-20T05:52:41.517Z,20.15
2023-09-20T05:55:15.971Z,20.04
2023-09-20T05:57:44.066Z,19.96
2023-09-20T06:00:18.791Z,19.95
2023-09-20T06:02:47.112Z,20.23
2023-09-20T06:05:16.110Z,20.51
2023-09-20T06:07:46.090Z,20.81
2023-09-20T06:10:13.928Z,21.22
2023-09-20T06:12:41.019Z,21.36
2023-09-20T06:15:09.373Z,21.51
2023-09-20T06:17:38.006Z,21.54
2023-09-20T06:20:09.360Z,21.34
2023-09-20T06:22:37.041Z,21.62
2023-09-20T06:25:06.003Z,21.51
2023-09-20T06:27:33.105Z,21.28
2023-09-20T06:30:01.610Z,21.06
2023-09-20T06:32:31.565Z,21.05
2023-09-20T06:34:59.595Z,21.07
2023-09-20T06:37:26.906Z,20.94
2023-09-20T06:39:56.524Z,20.94
2023-09-20T06:42:27.325Z,20.99
2023-09-20T06:44:56.955Z,21.01
2023-09-20T06:47:25.397Z,21.01
2023-09-20T06:49:52.959Z,20.99
2023-09-20T06:52:20.130Z,21.04
2023-09-20T06:54:47.264Z,21.10
2023-09-20T06:57:18.551Z,21.06
2023-09-20T06:59:47.023Z,21.06
2023-09-20T07:02:17.682Z,21.04
2023-09-20T07:04:45.430Z,21.15
2023-09-20T07:07:14.151Z,21.29
2023-09-20T07:09:41.463Z,21.48
2023-09-20T07:12:09.106Z,21.59
2023-09-20T07:14:36.720Z,21.64
2023-09-20T07:17:04.769Z,21.81
2023-09-20T07:19:32.895Z,21.88
2023-09-20T07:22:00.843Z,21.93
2023-09-20T07:24:28.010Z,22.04
2023-09-20T07:26:59.841Z,22.10
2023-09-20T07:29:27.183Z,22.17
2023-09-20T07:31:54.487Z,22.29
2023-09-20T07:34:24.480Z,22.39
2023-09-20T07:36:58.384Z,22.52
2023-09-20T07:39:26.659Z,22.65
2023-09-20T07:41:54.149Z,22.87
2023-09-20T07:44:32.451Z,22.99
2023-09-20T07:46:59.848Z,23.11
2023-09-20T07:49:27.232Z,23.26
2023-09-20T07:51:55.288Z,23.33
2023-09-20T07:54:22.439Z,23.42
2023-09-20T07:56:53.628Z,23.45
2023-09-20T07:59:25.091Z,23.56
2023-09-20T08:01:55.235Z,23.67
2023-09-20T08:04:24.648Z,23.81
2023-09-20T08:06:51.804Z,23.84
2023-09-20T08:09:18.910Z,23.97
2023-09-20T08:11:46.027Z,23.94
2023-09-20T08:14:13.400Z,24.12
2023-09-20T08:17:00.310Z,24.21
2023-09-20T08:19:32.567Z,24.35
2023-09-20T08:21:59.904Z,24.56
2023-09-20T08:24:45.671Z,24.59
2023-09-20T08:27:31.158Z,24.64
2023-09-20T08:30:16.602Z,24.76
2023-09-20T08:33:02.136Z,24.85
2023-09-20T08:35:47.923Z,24.90
2023-09-20T08:38:33.743Z,24.97
2023-09-20T08:41:19.268Z,25.16
2023-09-20T08:44:05.474Z,25.23
2023-09-20T08:46:55.758Z,25.30
2023-09-20T08:49:43.881Z,25.40
2023-09-20T08:52:31.461Z,25.39
2023-09-20T08:55:20.668Z,25.48
2023-09-20T08:58:07.028Z,25.64
2023-09-20T09:00:35.720Z,25.68
2023-09-20T09:03:05.781Z,25.71
2023-09-20T09:05:34.273Z,25.74
2023-09-20T09:08:03.730Z,25.85
2023-09-20T09:10:31.326Z,25.99
2023-09-20T09:12:58.674Z,26.19
2023-09-20T09:15:28.775Z,26.38
2023-09-20T09:17:56.714Z,26.42
2023-09-20T09:20:24.756Z,26.54
2023-09-20T09:22:52.407Z,26.69
2023-09-20T09:25:25.998Z,26.88
2023-09-20T09:27:54.397Z,26.95
2023-09-20T09:30:23.174Z,27.02
2023-09-20T09:32:51.660Z,27.00
2023-09-20T09:35:35.417Z,26.99
2023-09-20T09:38:07.983Z,27.00
2023-09-20T09:40:52.244Z,27.12
2023-09-20T09:43:20.784Z,27.20
2023-09-20T09:45:54.848Z,27.25
2023-09-20T09:48:25.815Z,27.36
2023-09-20T09:50:57.077Z,27.22
2023-09-20T09:53:26.528Z,27.32
2023-09-20T09:55:55.523Z,27.51
2023-09-20T09:58:23.149Z,27.71
2023-09-20T10:00:56.492Z,27.79
2023-09-20T10:03:33.870Z,27.95
2023-09-20T10:06:11.654Z,28.02
2023-09-20T10:08:41.285Z,28.11
2023-09-20T10:11:10.012Z,28.26
2023-09-20T10:13:39.087Z,28.43
2023-09-20T10:16:12.235Z,28.46
2023-09-20T10:19:00.064Z,28.52
2023-09-20T10:21:32.213Z,28.63
2023-09-20T10:24:10.667Z,28.73
2023-09-20T10:26:42.201Z,28.67
2023-09-20T10:29:30.054Z,28.56
2023-09-20T10:32:10.444Z,28.65
2023-09-20T10:34:39.090Z,28.71
2023-09-20T10:37:12.201Z,28.51
2023-09-20T10:39:47.881Z,28.56
2023-09-20T10:42:17.114Z,28.70
2023-09-20T10:44:44.767Z,28.68
2023-09-20T10:47:17.729Z,28.79
2023-09-20T10:49:51.565Z,28.96
2023-09-20T10:52:34.052Z,29.13
2023-09-20T10:55:20.347Z,29.16
2023-09-20T10:57:48.032Z,29.07
2023-09-20T11:00:26.711Z,29.11
2023-09-20T11:02:54.265Z,29.13
2023-09-20T11:05:25.017Z,29.19
2023-09-20T11:07:56.125Z,29.15
2023-09-20T11:10:24.474Z,29.14
2023-09-20T11:12:56.547Z,29.13
2023-09-20T11:15:25.408Z,29.29
2023-09-20T11:17:53.326Z,29.23
2023-09-20T11:20:20.651Z,29.29
2023-09-20T11:22:49.068Z,29.23
2023-09-20T11:25:16.275Z,29.50
2023-09-20T11:27:43.522Z,29.63
2023-09-20T11:30:12.305Z,29.82
2023-09-20T11:32:41.063Z,29.72
2023-09-20T11:35:09.098Z,29.74
2023-09-20T11:37:36.876Z,29.84
2023-09-20T11:40:06.339Z,29.86
2023-09-20T11:42:35.824Z,29.87
2023-09-20T11:45:33.628Z,30.00
2023-09-20T11:47:57.505Z,30.02
2023-09-20T11:50:27.874Z,29.99
2023-09-20T11:52:56.485Z,29.77
2023-09-20T11:55:24.545Z,29.93
2023-09-20T11:57:54.175Z,29.84
2023-09-20T12:00:27.450Z,29.99
2023-09-20T12:02:55.848Z,30.06
2023-09-20T12:05:23.527Z,29.99
2023-09-20T12:07:59.549Z,30.00
2023-09-20T12:10:28.272Z,29.99
2023-09-20T12:12:56.205Z,29.96
2023-09-20T12:15:27.117Z,29.98
2023-09-20T12:17:57.430Z,30.07
2023-09-20T12:20:26.070Z,30.19
2023-09-20T12:22:54.456Z,30.34
2023-09-20T12:25:22.027Z,30.50
2023-09-20T12:27:49.449Z,30.54
2023-09-20T12:30:17.071Z,30.51
2023-09-20T12:32:44.461Z,30.28
2023-09-20T12:35:12.206Z,30.34
2023-09-20T12:37:39.469Z,30.49
2023-09-20T12:40:10.382Z,30.68
2023-09-20T12:42:38.780Z,30.50
2023-09-20T12:45:10.342Z,30.54
2023-09-20T12:47:41.945Z,30.52
2023-09-20T12:50:14.377Z,30.54
2023-09-20T12:52:46.257Z,30.64
2023-09-20T12:55:15.092Z,30.66
2023-09-20T12:57:47.326Z,30.64
2023-09-20T13:00:29.865Z,30.74
2023-09-20T13:03:08.441Z,30.75
2023-09-20T13:05:38.152Z,30.86
2023-09-20T13:08:07.855Z,30.87
2023-09-20T13:10:35.170Z,31.03
2023-09-20T13:13:09.800Z,30.95
2023-09-20T13:15:40.381Z,30.83
2023-09-20T13:18:11.415Z,30.83
2023-09-20T13:20:42.766Z,30.87
2023-09-20T13:23:11.422Z,30.91
2023-09-20T13:25:44.350Z,31.01
2023-09-20T13:28:13.740Z,30.83
2023-09-20T13:30:42.485Z,30.84
2023-09-20T13:33:12.534Z,30.82
2023-09-20T13:35:40.901Z,30.94
2023-09-20T13:38:08.690Z,31.06
2023-09-20T13:40:37.548Z,31.04
2023-09-20T13:43:05.033Z,31.29
2023-09-20T13:45:32.902Z,31.33
2023-09-20T13:48:00.046Z,31.19
2023-09-20T13:50:29.216Z,31.11
2023-09-20T13:52:58.478Z,31.08
2023-09-20T13:55:32.556Z,31.13
2023-09-20T13:58:02.377Z,30.99
2023-09-20T14:00:30.362Z,30.84
2023-09-20T14:02:58.782Z,31.01
2023-09-20T14:05:27.729Z,30.99
2023-09-20T14:07:59.389Z,30.99
2023-09-20T14:10:35.368Z,30.92
2023-09-20T14:13:03.091Z,30.99
2023-09-20T14:15:31.290Z,30.93
2023-09-20T14:18:01.529Z,30.99
2023-09-20T14:20:29.538Z,30.91
2023-09-20T14:22:57.341Z,30.92
2023-09-20T14:25:26.541Z,30.89
2023-09-20T14:27:57.391Z,30.96
2023-09-20T14:30:24.825Z,30.79
2023-09-20T14:32:56.036Z,31.05
2023-09-20T14:35:24.098Z,31.00
2023-09-20T14:37:52.850Z,31.07
2023-09-20T14:40:24.217Z,31.07
2023-09-20T14:42:57.162Z,31.08
2023-09-20T14:45:28.102Z,30.96
2023-09-20T14:47:57.360Z,30.96
2023-09-20T14:50:27.164Z,30.96
2023-09-20T14:52:54.893Z,30.95
2023-09-20T14:55:22.403Z,30.84
2023-09-20T14:57:54.201Z,30.84
2023-09-20T15:00:23.712Z,30.84
2023-09-20T15:03:01.063Z,30.85
2023-09-20T15:05:28.586Z,30.89
2023-09-20T15:07:57.486Z,30.94
2023-09-20T15:10:27.016Z,30.79
2023-09-20T15:13:00.070Z,30.75
2023-09-20T15:15:29.072Z,30.59
2023-09-20T15:17:57.027Z,30.70
2023-09-20T15:20:25.243Z,30.70
2023-09-20T15:22:52.789Z,30.71
2023-09-20T15:25:20.070Z,30.80
2023-09-20T15:27:47.394Z,30.78
2023-09-20T15:30:15.457Z,30.87
2023-09-20T15:32:43.878Z,30.91
2023-09-20T15:35:11.280Z,30.92
2023-09-20T15:37:46.028Z,30.95
2023-09-20T15:40:18.716Z,30.93
2023-09-20T15:42:48.147Z,30.90
2023-09-20T15:45:20.195Z,30.85
2023-09-20T15:47:48.571Z,30.85
2023-09-20T15:50:16.560Z,30.82
2023-09-20T15:52:43.930Z,30.80
2023-09-20T15:55:16.903Z,30.65
2023-09-20T15:57:44.743Z,30.54
2023-09-20T16:00:15.651Z,30.43
2023-09-20T16:02:44.322Z,30.37
2023-09-20T16:05:12.436Z,30.43
2023-09-20T16:07:40.870Z,30.43
2023-09-20T16:10:15.613Z,30.40
2023-09-20T16:12:47.874Z,30.33
2023-09-20T16:15:17.330Z,30.27
2023-09-20T16:17:45.467Z,30.16
2023-09-20T16:20:16.041Z,30.03
2023-09-20T16:22:44.999Z,29.91
2023-09-20T16:25:13.660Z,29.79
2023-09-20T16:27:41.271Z,29.64
2023-09-20T16:30:09.449Z,29.64
2023-09-20T16:32:36.763Z,29.51
2023-09-20T16:35:06.408Z,29.39
2023-09-20T16:37:33.744Z,29.31
2023-09-20T16:40:01.537Z,29.15
2023-09-20T16:42:29.458Z,29.03
2023-09-20T16:44:56.973Z,28.95
2023-09-20T16:47:24.436Z,28.85
2023-09-20T16:49:52.792Z,28.73
2023-09-20T16:52:19.941Z,28.64
2023-09-20T16:54:47.095Z,28.58
2023-09-20T16:57:14.219Z,28.52
2023-09-20T16:59:44.041Z,28.38
2023-09-20T17:02:12.029Z,28.35
2023-09-20T17:04:39.426Z,28.23
2023-09-20T17:07:06.562Z,28.12
2023-09-20T17:09:33.942Z,28.11
2023-09-20T17:12:02.703Z,27.98
2023-09-20T17:14:30.182Z,27.92
2023-09-20T17:17:00.405Z,27.82
2023-09-20T17:19:27.554Z,27.76
2023-09-20T17:21:54.744Z,27.76
2023-09-20T17:24:21.973Z,27.64
2023-09-20T17:26:49.296Z,27.60
2023-09-20T17:29:16.494Z,27.51
2023-09-20T17:31:43.772Z,27.41
2023-09-20T17:34:11.238Z,27.34
2023-09-20T17:36:38.494Z,27.35
2023-09-20T17:39:06.321Z,27.27
2023-09-20T17:41:34.361Z,27.15
2023-09-20T17:44:01.699Z,27.18
2023-09-20T17:46:29.942Z,27.14
2023-09-20T17:48:57.603Z,27.06
2023-09-20T17:51:27.457Z,27.02
2023-09-20T17:53:54.727Z,27.02
2023-09-20T17:56:22.072Z,26.93
2023-09-20T17:58:50.819Z,26.78
2023-09-20T18:01:20.000Z,26.82
2023-09-20T18:03:49.253Z,26.69
2023-09-20T18:06:18.895Z,26.79
2023-09-20T18:08:51.192Z,26.80
2023-09-20T18:11:19.500Z,26.58
2023-09-20T18:13:47.463Z,26.56
2023-09-20T18:16:14.911Z,26.53
2023-09-20T18:18:43.107Z,26.47
2023-09-20T18:21:12.478Z,26.42
2023-09-20T18:23:41.988Z,26.35
2023-09-20T18:26:13.986Z,26.26
2023-09-20T18:28:41.271Z,26.31
2023-09-20T18:31:17.258Z,26.27
2023-09-20T18:33:49.625Z,26.14
2023-09-20T18:36:18.750Z,25.76
2023-09-20T18:38:47.736Z,25.95
2023-09-20T18:41:16.420Z,26.03
2023-09-20T18:43:47.570Z,26.09
2023-09-20T18:46:15.832Z,26.10
2023-09-20T18:48:43.638Z,26.12
2023-09-20T18:51:12.514Z,26.14
2023-09-20T18:53:40.078Z,26.15
2023-09-20T18:56:08.302Z,26.14
2023-09-20T18:58:37.244Z,26.11
2023-09-20T19:01:20.944Z,26.08
2023-09-20T19:03:48.750Z,26.08
2023-09-20T19:06:21.657Z,25.77
2023-09-20T19:08:58.212Z,25.77
2023-09-20T19:11:29.164Z,25.67
2023-09-20T19:13:56.337Z,25.75
2023-09-20T19:16:25.368Z,25.68
2023-09-20T19:19:00.266Z,25.75
2023-09-20T19:21:33.263Z,25.77
2023-09-20T19:24:10.313Z,25.52
2023-09-20T19:26:38.218Z,25.06
2023-09-20T19:29:05.551Z,25.12
2023-09-20T19:31:32.841Z,25.22
2023-09-20T19:34:00.178Z,25.32
2023-09-20T19:36:29.851Z,25.43
2023-09-20T19:38:57.268Z,25.30
2023-09-20T19:41:25.938Z,25.12
2023-09-20T19:43:53.397Z,25.20
2023-09-20T19:46:20.630Z,25.19
2023-09-20T19:48:49.196Z,24.99
2023-09-20T19:51:17.661Z,24.83
2023-09-20T19:53:46.169Z,24.65
2023-09-20T19:56:21.205Z,24.39
2023-09-20T19:58:51.465Z,24.26
2023-09-20T20:01:20.886Z,24.14
2023-09-20T20:03:48.441Z,23.75
2023-09-20T20:06:19.095Z,23.92
2023-09-20T20:08:47.254Z,23.91
2023-09-20T20:11:14.663Z,23.90
2023-09-20T20:13:43.609Z,24.03
2023-09-20T20:16:15.373Z,24.16
2023-09-20T20:18:50.146Z,24.31
2023-09-20T20:21:18.604Z,24.54
2023-09-20T20:23:46.773Z,24.73
2023-09-20T20:26:15.420Z,24.84
2023-09-20T20:28:43.622Z,24.98
2023-09-20T20:31:15.250Z,24.98
2023-09-20T20:33:42.653Z,25.12
2023-09-20T20:36:10.072Z,25.15
2023-09-20T20:38:37.455Z,25.17
2023-09-20T20:41:06.813Z,25.19
2023-09-20T20:43:34.643Z,25.02
2023-09-20T20:46:01.957Z,24.85
2023-09-20T20:48:29.122Z,24.70
2023-09-20T20:50:56.714Z,24.68
2023-09-20T20:53:25.554Z,24.71
2023-09-20T20:55:56.793Z,24.66
2023-09-20T20:58:27.228Z,24.52
2023-09-20T21:00:58.786Z,24.50
2023-09-20T21:03:26.461Z,24.53
2023-09-20T21:05:53.988Z,24.59
2023-09-20T21:08:22.476Z,24.61
2023-09-20T21:10:50.232Z,24.47
2023-09-20T21:13:18.321Z,24.64
2023-09-20T21:15:48.510Z,24.66
2023-09-20T21:18:20.223Z,24.68
2023-09-20T21:20:51.153Z,24.66
2023-09-20T21:23:18.943Z,24.66
2023-09-20T21:25:47.446Z,24.56
2023-09-20T21:28:15.033Z,24.51
2023-09-20T21:30:42.579Z,24.54
2023-09-20T21:33:10.578Z,24.58
2023-09-20T21:35:38.374Z,24.58
2023-09-20T21:38:12.741Z,24.50
2023-09-20T21:40:40.137Z,24.30
2023-09-20T21:43:10.750Z,24.13
2023-09-20T21:45:39.143Z,23.99
2023-09-20T21:48:07.848Z,23.98
2023-09-20T21:50:36.188Z,23.90
2023-09-20T21:53:05.301Z,23.96
2023-09-20T21:55:33.371Z,24.08
2023-09-20T21:58:00.609Z,24.14
2023-09-20T22:00:27.716Z,24.06
2023-09-20T22:03:05.470Z,24.21
2023-09-20T22:05:34.477Z,24.08
2023-09-20T22:08:03.958Z,23.87
2023-09-20T22:10:46.450Z,23.87
2023-09-20T22:13:15.587Z,23.72
2023-09-20T22:15:46.420Z,23.39
2023-09-20T22:18:25.730Z,23.38
2023-09-20T22:21:01.438Z,23.56
2023-09-20T22:23:29.737Z,23.66
2023-09-20T22:25:59.466Z,23.72
2023-09-20T22:28:27.111Z,23.75
2023-09-20T22:30:54.587Z,23.80
2023-09-20T22:33:21.860Z,23.85
2023-09-20T22:36:00.327Z,23.80
2023-09-20T22:38:35.544Z,23.82
2023-09-20T22:41:02.997Z,23.82
2023-09-20T22:43:31.878Z,23.80
2023-09-20T22:45:59.050Z,23.64
2023-09-20T22:48:28.810Z,23.63
2023-09-20T22:50:57.167Z,23.67
2023-09-20T22:53:24.928Z,23.82
2023-09-20T22:55:53.236Z,23.83
2023-09-20T22:58:20.691Z,23.83
2023-09-20T23:00:50.182Z,23.85
2023-09-20T23:03:22.996Z,23.79
2023-09-20T23:05:53.485Z,23.72
2023-09-20T23:08:21.185Z,23.69
2023-09-20T23:10:53.306Z,23.82
2023-09-20T23:13:23.015Z,23.89
2023-09-20T23:15:54.694Z,23.87
2023-09-20T23:18:24.064Z,23.87
2023-09-20T23:20:53.492Z,23.93
2023-09-20T23:23:21.028Z,23.99
2023-09-20T23:25:51.301Z,24.02
2023-09-20T23:28:18.556Z,23.97
2023-09-20T23:30:47.802Z,24.03
2023-09-20T23:33:18.122Z,24.08
2023-09-20T23:35:52.117Z,24.10
2023-09-20T23:38:22.817Z,24.15
2023-09-20T23:40:59.559Z,24.18
2023-09-20T23:43:26.761Z,24.21
2023-09-20T23:45:53.912Z,24.17
2023-09-20T23:48:21.122Z,24.21
2023-09-20T23:50:49.138Z,24.17
2023-09-20T23:53:16.484Z,24.16
2023-09-20T23:55:43.957Z,24.15
2023-09-20T23:58:13.439Z,24.19
